Atlantic Horizon — C6XI2 — position and weather

sailwx.info

Track history (hours):
 
Tides and Currents Weather Stations Pressure Air Temp Water Temp Dewpoint Dewpoint Depression Visibility Wind Speed Wind Dir Waves Ship Positions

Atlantic Horizon

Last reported at 2014-Oct-30 23:33 UTC. Time now 2014-Oct-31 14:56 UTC.
Position N 36°34' E 014°02'.

Length 225 m; draft 12.3 m.

Type: Cargo ship. MMSI: 311010300.

Date/timePositionNaut miles runAvg speedWind from/ knotsBaromVisibWave heightAir tempDewpointWater temp
2014-Oct-30 23:33N 36°34' E 014°02'1413.5
2014-Oct-30 22:33N 36°38' E 013°46'63913.6
2014-Oct-28 23:29N 36°41' E 000°29'27713.8
2014-Oct-28 03:30N 36°01' W 005°11'1414.9
2014-Oct-28 02:33N 35°58' W 005°28'2512.1
2014-Oct-28 00:27N 35°54' W 005°59'1112.7
2014-Oct-27 23:33N 35°54' W 006°13'1312.6
2014-Oct-27 22:33N 35°54' W 006°29'1413.0
2014-Oct-27 21:29N 35°55' W 006°46'1313.4
2014-Oct-27 20:33N 35°56' W 007°01'1413.6
2014-Oct-27 19:33N 35°57' W 007°18'1413.6
2014-Oct-27 18:33N 35°58' W 007°35'1313.3
2014-Oct-27 17:33N 35°59' W 007°51'2713.3
2014-Oct-27 15:33N 36°06' W 008°23'1313.2
2014-Oct-27 14:33N 36°10' W 008°38'1413.6
2014-Oct-27 13:33N 36°14' W 008°54'1413.6
2014-Oct-27 12:33N 36°18' W 009°10'2013.8
2014-Oct-27 11:06N 36°24' W 009°34'813.8
2014-Oct-27 10:33N 36°27' W 009°43'1413.5
2014-Oct-27 09:33N 36°31' W 009°59'1313.3
2014-Oct-27 08:33N 36°37' W 010°14'1313.4
2014-Oct-27 07:33N 36°43' W 010°29'1313.3
2014-Oct-27 06:33N 36°49' W 010°44'1413.7
2014-Oct-27 05:33N 36°55' W 010°59'1413.5
2014-Oct-27 04:33N 37°01' W 011°14'1313.4
2014-Oct-27 03:33N 37°07' W 011°29'1713.4
2014-Oct-27 02:16N 37°15' W 011°48'1013.7
2014-Oct-27 01:33N 37°19' W 011°59'1513.7
2014-Oct-27 00:30N 37°26' W 012°15'1213.1
2014-Oct-26 23:33N 37°32' W 012°29'1313.6
2014-Oct-26 22:33N 37°38' W 012°44'1413.9
2014-Oct-26 21:33N 37°44' W 013°00'1413.8
2014-Oct-26 20:33N 37°51' W 013°16'1613.5
2014-Oct-26 19:22N 37°58' W 013°34'  
Track history (hours):
 
Tides and Currents Weather Stations Pressure Air Temp Water Temp Dewpoint Dewpoint Depression Visibility Wind Speed Wind Dir Waves Ship Positions

Atlantic Horizon

Last reported at 2014-Oct-30 23:33 UTC. Time now 2014-Oct-31 14:56 UTC.
Position N 36°34' E 014°02'.

Length 225 m; draft 12.3 m.

Type: Cargo ship. MMSI: 311010300.

Date/timePositionNaut miles runAvg speedWind from/ knotsBaromVisibWave heightAir tempDewpointWater temp
2014-Oct-30 23:33N 36°34' E 014°02'1413.5
2014-Oct-30 22:33N 36°38' E 013°46'63913.6
2014-Oct-28 23:29N 36°41' E 000°29'27713.8
2014-Oct-28 03:30N 36°01' W 005°11'1414.9
2014-Oct-28 02:33N 35°58' W 005°28'2512.1
2014-Oct-28 00:27N 35°54' W 005°59'1112.7
2014-Oct-27 23:33N 35°54' W 006°13'1312.6
2014-Oct-27 22:33N 35°54' W 006°29'1413.0
2014-Oct-27 21:29N 35°55' W 006°46'1313.4
2014-Oct-27 20:33N 35°56' W 007°01'1413.6
2014-Oct-27 19:33N 35°57' W 007°18'1413.6
2014-Oct-27 18:33N 35°58' W 007°35'1313.3
2014-Oct-27 17:33N 35°59' W 007°51'2713.3
2014-Oct-27 15:33N 36°06' W 008°23'1313.2
2014-Oct-27 14:33N 36°10' W 008°38'1413.6
2014-Oct-27 13:33N 36°14' W 008°54'1413.6
2014-Oct-27 12:33N 36°18' W 009°10'2013.8
2014-Oct-27 11:06N 36°24' W 009°34'813.8
2014-Oct-27 10:33N 36°27' W 009°43'1413.5
2014-Oct-27 09:33N 36°31' W 009°59'1313.3
2014-Oct-27 08:33N 36°37' W 010°14'1313.4
2014-Oct-27 07:33N 36°43' W 010°29'1313.3
2014-Oct-27 06:33N 36°49' W 010°44'1413.7
2014-Oct-27 05:33N 36°55' W 010°59'1413.5
2014-Oct-27 04:33N 37°01' W 011°14'1313.4
2014-Oct-27 03:33N 37°07' W 011°29'1713.4
2014-Oct-27 02:16N 37°15' W 011°48'1013.7
2014-Oct-27 01:33N 37°19' W 011°59'1513.7
2014-Oct-27 00:30N 37°26' W 012°15'1213.1
2014-Oct-26 23:33N 37°32' W 012°29'1313.6
2014-Oct-26 22:33N 37°38' W 012°44'1413.9
2014-Oct-26 21:33N 37°44' W 013°00'1413.8
2014-Oct-26 20:33N 37°51' W 013°16'1613.5
2014-Oct-26 19:22N 37°58' W 013°34'  

Dump ship's entire track history